sensor_id;sensor_type;location;lat;lon;timestamp;pressure;altitude;pressure_sealevel;temperature;humidity
14295;BME280;7231;59.370;18.016;2023-03-13T00:01:10;100038.41;;;-4.68;52.62
14295;BME280;7231;59.370;18.016;2023-03-13T00:03:38;100034.63;;;-4.73;52.96
14295;BME280;7231;59.370;18.016;2023-03-13T00:06:08;100041.63;;;-4.71;53.05
14295;BME280;7231;59.370;18.016;2023-03-13T00:08:36;100042.84;;;-4.77;53.00
14295;BME280;7231;59.370;18.016;2023-03-13T00:11:06;99962.84;;;-5.21;53.17
14295;BME280;7231;59.370;18.016;2023-03-13T00:13:35;100040.41;;;-4.76;53.50
14295;BME280;7231;59.370;18.016;2023-03-13T00:16:05;100028.59;;;-4.85;53.53
14295;BME280;7231;59.370;18.016;2023-03-13T00:18:34;100049.63;;;-4.78;53.72
14295;BME280;7231;59.370;18.016;2023-03-13T00:21:04;100053.84;;;-4.78;53.31
14295;BME280;7231;59.370;18.016;2023-03-13T00:23:35;100049.28;;;-4.82;53.58
14295;BME280;7231;59.370;18.016;2023-03-13T00:26:05;99999.41;;;-5.11;53.68
14295;BME280;7231;59.370;18.016;2023-03-13T00:28:34;100048.16;;;-4.86;53.78
14295;BME280;7231;59.370;18.016;2023-03-13T00:31:04;100055.72;;;-4.87;53.90
14295;BME280;7231;59.370;18.016;2023-03-13T00:33:33;100048.16;;;-4.86;53.70
14295;BME280;7231;59.370;18.016;2023-03-13T00:36:03;100039.34;;;-4.90;53.73
14295;BME280;7231;59.370;18.016;2023-03-13T00:38:33;100004.63;;;-5.09;53.47
14295;BME280;7231;59.370;18.016;2023-03-13T00:41:03;99988.59;;;-5.18;53.97
14295;BME280;7231;59.370;18.016;2023-03-13T00:43:32;100004.84;;;-5.06;54.04
14295;BME280;7231;59.370;18.016;2023-03-13T00:46:00;100034.25;;;-4.90;54.32
14295;BME280;7231;59.370;18.016;2023-03-13T00:48:29;100033.47;;;-4.88;54.23
14295;BME280;7231;59.370;18.016;2023-03-13T00:50:57;100037.69;;;-4.89;53.96
14295;BME280;7231;59.370;18.016;2023-03-13T00:53:25;99984.72;;;-5.13;54.22
14295;BME280;7231;59.370;18.016;2023-03-13T00:55:57;99970.63;;;-5.20;54.21
14295;BME280;7231;59.370;18.016;2023-03-13T00:58:26;100019.69;;;-4.91;54.39
14295;BME280;7231;59.370;18.016;2023-03-13T01:00:55;100019.69;;;-4.91;54.54
14295;BME280;7231;59.370;18.016;2023-03-13T01:03:24;99983.28;;;-5.10;54.26
14295;BME280;7231;59.370;18.016;2023-03-13T01:05:56;100011.66;;;-4.95;54.49
14295;BME280;7231;59.370;18.016;2023-03-13T01:08:24;100007.44;;;-4.95;54.72
14295;BME280;7231;59.370;18.016;2023-03-13T01:10:58;99981.84;;;-5.06;54.92
14295;BME280;7231;59.370;18.016;2023-03-13T01:13:26;100001.44;;;-4.95;54.49
14295;BME280;7231;59.370;18.016;2023-03-13T01:15:54;99998.00;;;-4.96;54.66
14295;BME280;7231;59.370;18.016;2023-03-13T01:18:22;99998.00;;;-4.96;54.46
14295;BME280;7231;59.370;18.016;2023-03-13T01:20:51;99970.75;;;-5.07;54.89
14295;BME280;7231;59.370;18.016;2023-03-13T01:23:19;99982.66;;;-4.96;54.84
14295;BME280;7231;59.370;18.016;2023-03-13T01:25:47;99970.44;;;-5.00;54.67
14295;BME280;7231;59.370;18.016;2023-03-13T01:28:16;99982.78;;;-4.94;54.98
14295;BME280;7231;59.370;18.016;2023-03-13T01:30:44;99976.78;;;-4.95;54.81
14295;BME280;7231;59.370;18.016;2023-03-13T01:33:12;99915.38;;;-5.30;54.82
14295;BME280;7231;59.370;18.016;2023-03-13T01:35:40;99977.44;;;-4.97;55.20
14295;BME280;7231;59.370;18.016;2023-03-13T01:38:09;99970.31;;;-5.01;54.99
14295;BME280;7231;59.370;18.016;2023-03-13T01:40:41;99967.63;;;-5.03;55.34
14295;BME280;7231;59.370;18.016;2023-03-13T01:43:19;99965.84;;;-5.04;55.17
14295;BME280;7231;59.370;18.016;2023-03-13T01:45:58;99955.53;;;-5.05;55.25
14295;BME280;7231;59.370;18.016;2023-03-13T01:48:35;99951.19;;;-5.06;55.54
14295;BME280;7231;59.370;18.016;2023-03-13T01:51:07;99948.50;;;-5.08;55.43
14295;BME280;7231;59.370;18.016;2023-03-13T01:53:40;99953.50;;;-5.09;55.20
14295;BME280;7231;59.370;18.016;2023-03-13T01:56:12;99905.13;;;-5.41;55.37
14295;BME280;7231;59.370;18.016;2023-03-13T01:58:43;99961.94;;;-5.10;55.56
14295;BME280;7231;59.370;18.016;2023-03-13T02:01:12;99770.97;;;-6.16;55.73
14295;BME280;7231;59.370;18.016;2023-03-13T02:03:41;99943.84;;;-5.13;55.75
14295;BME280;7231;59.370;18.016;2023-03-13T02:06:09;99947.28;;;-5.13;55.93
14295;BME280;7231;59.370;18.016;2023-03-13T02:08:42;99916.41;;;-5.28;56.11
14295;BME280;7231;59.370;18.016;2023-03-13T02:11:20;99939.72;;;-5.11;56.12
14295;BME280;7231;59.370;18.016;2023-03-13T02:13:52;99940.63;;;-5.11;55.92
14295;BME280;7231;59.370;18.016;2023-03-13T02:16:21;99945.06;;;-5.08;56.12
14295;BME280;7231;59.370;18.016;2023-03-13T02:18:49;99939.06;;;-5.09;56.36
14295;BME280;7231;59.370;18.016;2023-03-13T02:21:26;99915.28;;;-5.19;56.49
14295;BME280;7231;59.370;18.016;2023-03-13T02:24:05;99812.69;;;-5.71;56.40
14295;BME280;7231;59.370;18.016;2023-03-13T02:26:37;99919.50;;;-5.08;56.26
14295;BME280;7231;59.370;18.016;2023-03-13T02:29:05;99926.28;;;-5.09;56.41
14295;BME280;7231;59.370;18.016;2023-03-13T02:31:33;99923.63;;;-5.10;56.36
14295;BME280;7231;59.370;18.016;2023-03-13T02:34:01;99912.28;;;-5.14;56.52
14295;BME280;7231;59.370;18.016;2023-03-13T02:36:30;99913.06;;;-5.15;56.90
14295;BME280;7231;59.370;18.016;2023-03-13T02:39:02;99919.84;;;-5.15;56.84
14295;BME280;7231;59.370;18.016;2023-03-13T02:41:33;99918.81;;;-5.17;56.91
14295;BME280;7231;59.370;18.016;2023-03-13T02:44:03;99916.38;;;-5.16;57.08
14295;BME280;7231;59.370;18.016;2023-03-13T02:46:42;99910.38;;;-5.16;57.16
14295;BME280;7231;59.370;18.016;2023-03-13T02:49:18;99913.19;;;-5.25;56.94
14295;BME280;7231;59.370;18.016;2023-03-13T02:51:47;99925.06;;;-5.14;57.36
14295;BME280;7231;59.370;18.016;2023-03-13T02:54:18;99928.50;;;-5.13;57.26
14295;BME280;7231;59.370;18.016;2023-03-13T02:56:50;99925.94;;;-5.13;57.25
14295;BME280;7231;59.370;18.016;2023-03-13T02:59:20;99918.41;;;-5.12;57.23
14295;BME280;7231;59.370;18.016;2023-03-13T03:01:48;99903.38;;;-5.19;57.32
14295;BME280;7231;59.370;18.016;2023-03-13T03:04:19;99913.28;;;-5.12;57.11
14295;BME280;7231;59.370;18.016;2023-03-13T03:06:48;99908.06;;;-5.13;57.44
14295;BME280;7231;59.370;18.016;2023-03-13T03:09:17;99847.91;;;-5.55;57.25
14295;BME280;7231;59.370;18.016;2023-03-13T03:11:45;99912.16;;;-5.15;57.86
14295;BME280;7231;59.370;18.016;2023-03-13T03:14:14;99895.97;;;-5.28;57.42
14295;BME280;7231;59.370;18.016;2023-03-13T03:16:43;99905.16;;;-5.18;57.56
14295;BME280;7231;59.370;18.016;2023-03-13T03:19:11;99884.19;;;-5.26;57.87
14295;BME280;7231;59.370;18.016;2023-03-13T03:21:39;99900.75;;;-5.20;58.03
14295;BME280;7231;59.370;18.016;2023-03-13T03:24:07;99894.06;;;-5.18;58.00
14295;BME280;7231;59.370;18.016;2023-03-13T03:26:35;99893.16;;;-5.19;58.17
14295;BME280;7231;59.370;18.016;2023-03-13T03:29:03;99891.63;;;-5.17;58.30
14295;BME280;7231;59.370;18.016;2023-03-13T03:31:31;99892.50;;;-5.16;58.14
14295;BME280;7231;59.370;18.016;2023-03-13T03:34:00;99893.38;;;-5.16;58.31
14295;BME280;7231;59.370;18.016;2023-03-13T03:36:28;99892.63;;;-5.15;58.55
14295;BME280;7231;59.370;18.016;2023-03-13T03:38:57;99881.84;;;-5.22;58.63
14295;BME280;7231;59.370;18.016;2023-03-13T03:41:24;99897.19;;;-5.11;58.70
14295;BME280;7231;59.370;18.016;2023-03-13T03:43:52;99885.41;;;-5.09;58.58
14295;BME280;7231;59.370;18.016;2023-03-13T03:46:20;99879.63;;;-5.06;58.72
14295;BME280;7231;59.370;18.016;2023-03-13T03:48:48;99859.16;;;-5.18;58.78
14295;BME280;7231;59.370;18.016;2023-03-13T03:51:17;99880.50;;;-5.06;58.61
14295;BME280;7231;59.370;18.016;2023-03-13T03:53:45;99871.97;;;-5.06;58.78
14295;BME280;7231;59.370;18.016;2023-03-13T03:56:14;99815.63;;;-5.43;58.80
14295;BME280;7231;59.370;18.016;2023-03-13T03:58:42;99861.19;;;-5.14;59.13
14295;BME280;7231;59.370;18.016;2023-03-13T04:01:10;99889.19;;;-5.04;59.21
14295;BME280;7231;59.370;18.016;2023-03-13T04:03:38;99866.41;;;-5.01;59.17
14295;BME280;7231;59.370;18.016;2023-03-13T04:06:06;99879.31;;;-4.99;59.06
14295;BME280;7231;59.370;18.016;2023-03-13T04:08:36;99865.63;;;-5.00;59.29
14295;BME280;7231;59.370;18.016;2023-03-13T04:11:04;99865.63;;;-5.00;59.20
14295;BME280;7231;59.370;18.016;2023-03-13T04:13:32;99858.97;;;-4.98;58.98
14295;BME280;7231;59.370;18.016;2023-03-13T04:16:05;99850.41;;;-4.98;59.20
14295;BME280;7231;59.370;18.016;2023-03-13T04:18:33;99846.28;;;-4.96;59.50
14295;BME280;7231;59.370;18.016;2023-03-13T04:21:03;99838.63;;;-4.96;59.06
14295;BME280;7231;59.370;18.016;2023-03-13T04:23:31;99832.50;;;-4.98;59.47
14295;BME280;7231;59.370;18.016;2023-03-13T04:26:00;99820.63;;;-4.98;59.05
14295;BME280;7231;59.370;18.016;2023-03-13T04:28:28;99806.19;;;-5.09;59.39
14295;BME280;7231;59.370;18.016;2023-03-13T04:30:56;99818.06;;;-4.98;59.09
14295;BME280;7231;59.370;18.016;2023-03-13T04:33:24;99797.97;;;-5.05;59.17
14295;BME280;7231;59.370;18.016;2023-03-13T04:35:52;99812.63;;;-4.91;59.62
14295;BME280;7231;59.370;18.016;2023-03-13T04:38:20;99771.84;;;-5.01;59.57
14295;BME280;7231;59.370;18.016;2023-03-13T04:40:48;99787.38;;;-4.86;59.66
14295;BME280;7231;59.370;18.016;2023-03-13T04:43:18;99793.06;;;-4.90;59.50
14295;BME280;7231;59.370;18.016;2023-03-13T04:45:46;99789.94;;;-4.98;59.53
14295;BME280;7231;59.370;18.016;2023-03-13T04:48:15;99788.50;;;-5.06;59.73
14295;BME280;7231;59.370;18.016;2023-03-13T04:50:43;99785.19;;;-5.05;59.79
14295;BME280;7231;59.370;18.016;2023-03-13T04:53:11;99785.41;;;-5.02;59.59
14295;BME280;7231;59.370;18.016;2023-03-13T04:55:39;99769.41;;;-4.99;59.93
14295;BME280;7231;59.370;18.016;2023-03-13T04:58:08;99774.84;;;-4.95;59.93
14295;BME280;7231;59.370;18.016;2023-03-13T05:00:38;99772.28;;;-4.95;59.87
14295;BME280;7231;59.370;18.016;2023-03-13T05:03:06;99761.63;;;-5.01;59.91
14295;BME280;7231;59.370;18.016;2023-03-13T05:05:34;99717.69;;;-5.20;59.80
14295;BME280;7231;59.370;18.016;2023-03-13T05:08:02;99734.06;;;-5.05;59.82
14295;BME280;7231;59.370;18.016;2023-03-13T05:10:31;99740.81;;;-4.94;60.24
14295;BME280;7231;59.370;18.016;2023-03-13T05:12:59;99738.28;;;-4.94;59.87
14295;BME280;7231;59.370;18.016;2023-03-13T05:15:27;99743.28;;;-4.95;60.17
14295;BME280;7231;59.370;18.016;2023-03-13T05:17:57;99756.94;;;-4.95;60.18
14295;BME280;7231;59.370;18.016;2023-03-13T05:20:25;99747.81;;;-4.91;60.46
14295;BME280;7231;59.370;18.016;2023-03-13T05:22:52;99735.94;;;-4.91;60.91
14295;BME280;7231;59.370;18.016;2023-03-13T05:25:20;99653.38;;;-5.26;60.81
14295;BME280;7231;59.370;18.016;2023-03-13T05:27:48;99728.09;;;-4.69;61.00
14295;BME280;7231;59.370;18.016;2023-03-13T05:30:16;99725.97;;;-4.63;60.99
14295;BME280;7231;59.370;18.016;2023-03-13T05:32:44;99731.63;;;-4.55;61.38
14295;BME280;7231;59.370;18.016;2023-03-13T05:35:14;99699.16;;;-4.56;61.40
14295;BME280;7231;59.370;18.016;2023-03-13T05:37:42;99713.09;;;-4.39;61.28
14295;BME280;7231;59.370;18.016;2023-03-13T05:40:11;99696.75;;;-4.41;61.70
14295;BME280;7231;59.370;18.016;2023-03-13T05:42:40;99698.09;;;-4.21;61.80
14295;BME280;7231;59.370;18.016;2023-03-13T05:45:08;99689.25;;;-4.13;62.37
14295;BME280;7231;59.370;18.016;2023-03-13T05:47:37;99688.09;;;-4.05;62.17
14295;BME280;7231;59.370;18.016;2023-03-13T05:50:06;99693.53;;;-4.01;62.63
14295;BME280;7231;59.370;18.016;2023-03-13T05:52:35;99684.59;;;-3.94;62.54
14295;BME280;7231;59.370;18.016;2023-03-13T05:55:04;99691.09;;;-3.86;62.89
14295;BME280;7231;59.370;18.016;2023-03-13T05:57:32;99646.66;;;-4.00;62.88
14295;BME280;7231;59.370;18.016;2023-03-13T06:00:00;99677.44;;;-3.73;63.45
14295;BME280;7231;59.370;18.016;2023-03-13T06:02:29;99678.72;;;-3.67;63.02
14295;BME280;7231;59.370;18.016;2023-03-13T06:04:57;99650.03;;;-3.74;63.36
14295;BME280;7231;59.370;18.016;2023-03-13T06:07:25;99676.16;;;-3.53;63.46
14295;BME280;7231;59.370;18.016;2023-03-13T06:09:54;99669.06;;;-3.44;63.54
14295;BME280;7231;59.370;18.016;2023-03-13T06:12:22;99660.38;;;-3.33;63.63
14295;BME280;7231;59.370;18.016;2023-03-13T06:14:50;99655.03;;;-3.23;63.71
14295;BME280;7231;59.370;18.016;2023-03-13T06:17:18;99647.25;;;-3.11;64.32
14295;BME280;7231;59.370;18.016;2023-03-13T06:19:46;99638.63;;;-2.99;64.32
14295;BME280;7231;59.370;18.016;2023-03-13T06:22:15;99643.03;;;-2.83;64.74
14295;BME280;7231;59.370;18.016;2023-03-13T06:24:43;99557.03;;;-3.19;64.53
14295;BME280;7231;59.370;18.016;2023-03-13T06:27:14;99630.59;;;-2.47;64.73
14295;BME280;7231;59.370;18.016;2023-03-13T06:29:41;99621.97;;;-2.35;65.05
14295;BME280;7231;59.370;18.016;2023-03-13T06:32:09;99594.16;;;-2.27;64.87
14295;BME280;7231;59.370;18.016;2023-03-13T06:34:37;99608.59;;;-2.00;65.09
14295;BME280;7231;59.370;18.016;2023-03-13T06:37:05;99608.94;;;-1.79;64.96
14295;BME280;7231;59.370;18.016;2023-03-13T06:39:33;99581.56;;;-1.78;64.92
14295;BME280;7231;59.370;18.016;2023-03-13T06:42:01;99604.38;;;-1.53;64.95
14295;BME280;7231;59.370;18.016;2023-03-13T06:44:31;99612.59;;;-1.44;64.80
14295;BME280;7231;59.370;18.016;2023-03-13T06:46:59;99581.84;;;-1.43;64.88
14295;BME280;7231;59.370;18.016;2023-03-13T06:49:27;99588.78;;;-1.25;65.10
14295;BME280;7231;59.370;18.016;2023-03-13T06:51:56;99589.28;;;-1.16;65.02
14295;BME280;7231;59.370;18.016;2023-03-13T06:54:25;99581.19;;;-1.08;64.96
14295;BME280;7231;59.370;18.016;2023-03-13T06:56:53;99573.06;;;-0.99;65.07
14295;BME280;7231;59.370;18.016;2023-03-13T06:59:21;99543.09;;;-0.99;65.23
14295;BME280;7231;59.370;18.016;2023-03-13T07:01:50;99547.25;;;-0.84;65.01
14295;BME280;7231;59.370;18.016;2023-03-13T07:04:18;99532.22;;;-0.77;65.05
14295;BME280;7231;59.370;18.016;2023-03-13T07:06:46;99500.16;;;-0.83;65.14
14295;BME280;7231;59.370;18.016;2023-03-13T07:09:14;99517.00;;;-0.72;65.08
14295;BME280;7231;59.370;18.016;2023-03-13T07:11:42;99537.50;;;-0.57;65.01
14295;BME280;7231;59.370;18.016;2023-03-13T07:14:10;99533.72;;;-0.48;65.28
14295;BME280;7231;59.370;18.016;2023-03-13T07:16:43;99531.59;;;-0.39;65.04
14295;BME280;7231;59.370;18.016;2023-03-13T07:19:13;99527.72;;;-0.30;65.12
14295;BME280;7231;59.370;18.016;2023-03-13T07:21:41;99445.41;;;-0.63;65.06
14295;BME280;7231;59.370;18.016;2023-03-13T07:24:09;99501.75;;;-0.17;64.98
14295;BME280;7231;59.370;18.016;2023-03-13T07:26:37;99503.81;;;-0.10;65.14
14295;BME280;7231;59.370;18.016;2023-03-13T07:29:14;99508.44;;;-0.03;65.00
14295;BME280;7231;59.370;18.016;2023-03-13T07:31:42;99479.56;;;0.04;65.08
14295;BME280;7231;59.370;18.016;2023-03-13T07:34:10;99458.13;;;0.05;64.74
14295;BME280;7231;59.370;18.016;2023-03-13T07:36:39;99475.19;;;0.21;64.58
14295;BME280;7231;59.370;18.016;2023-03-13T07:39:07;99467.81;;;0.28;64.59
14295;BME280;7231;59.370;18.016;2023-03-13T07:41:35;99463.78;;;0.33;64.60
14295;BME280;7231;59.370;18.016;2023-03-13T07:44:05;99449.19;;;0.34;64.78
14295;BME280;7231;59.370;18.016;2023-03-13T07:46:33;99460.00;;;0.45;64.38
14295;BME280;7231;59.370;18.016;2023-03-13T07:49:01;99436.09;;;0.49;64.13
14295;BME280;7231;59.370;18.016;2023-03-13T07:51:29;99432.84;;;0.53;64.52
14295;BME280;7231;59.370;18.016;2023-03-13T07:54:10;99410.03;;;0.43;64.34
14295;BME280;7231;59.370;18.016;2023-03-13T07:56:39;99414.13;;;0.57;64.13
14295;BME280;7231;59.370;18.016;2023-03-13T07:59:06;99392.53;;;0.55;63.84
14295;BME280;7231;59.370;18.016;2023-03-13T08:01:35;99403.66;;;0.73;63.89
14295;BME280;7231;59.370;18.016;2023-03-13T08:04:03;99345.72;;;0.46;63.84
14295;BME280;7231;59.370;18.016;2023-03-13T08:06:32;99374.69;;;0.79;64.21
14295;BME280;7231;59.370;18.016;2023-03-13T08:09:02;99372.22;;;0.82;64.18
14295;BME280;7231;59.370;18.016;2023-03-13T08:11:33;99367.13;;;0.83;64.33
14295;BME280;7231;59.370;18.016;2023-03-13T08:14:01;99347.06;;;0.76;64.25
14295;BME280;7231;59.370;18.016;2023-03-13T08:16:31;99372.28;;;0.83;64.65
14295;BME280;7231;59.370;18.016;2023-03-13T08:19:02;99369.59;;;0.80;65.05
14295;BME280;7231;59.370;18.016;2023-03-13T08:21:33;99370.13;;;0.73;65.10
14295;BME280;7231;59.370;18.016;2023-03-13T08:24:03;99361.31;;;0.68;65.32
14295;BME280;7231;59.370;18.016;2023-03-13T08:26:35;99356.78;;;0.62;66.76
14295;BME280;7231;59.370;18.016;2023-03-13T08:29:05;99339.75;;;0.47;67.13
14295;BME280;7231;59.370;18.016;2023-03-13T08:31:35;99328.34;;;0.42;67.67
14295;BME280;7231;59.370;18.016;2023-03-13T08:34:03;99338.53;;;0.58;67.43
14295;BME280;7231;59.370;18.016;2023-03-13T08:36:33;99336.69;;;0.55;68.26
14295;BME280;7231;59.370;18.016;2023-03-13T08:39:03;99317.97;;;0.40;69.50
14295;BME280;7231;59.370;18.016;2023-03-13T08:41:34;99324.16;;;0.44;70.37
14295;BME280;7231;59.370;18.016;2023-03-13T08:44:03;99324.97;;;0.43;70.35
14295;BME280;7231;59.370;18.016;2023-03-13T08:46:33;99239.88;;;0.03;70.54
14295;BME280;7231;59.370;18.016;2023-03-13T08:49:03;99234.91;;;0.07;70.51
14295;BME280;7231;59.370;18.016;2023-03-13T08:51:32;99306.44;;;0.51;71.24
14295;BME280;7231;59.370;18.016;2023-03-13T08:54:00;99251.84;;;0.21;72.18
14295;BME280;7231;59.370;18.016;2023-03-13T08:56:30;99276.72;;;0.40;72.28
14295;BME280;7231;59.370;18.016;2023-03-13T08:59:00;99287.31;;;0.46;72.90
14295;BME280;7231;59.370;18.016;2023-03-13T09:01:31;99248.78;;;0.30;73.29
14295;BME280;7231;59.370;18.016;2023-03-13T09:03:59;99241.00;;;0.28;73.75
14295;BME280;7231;59.370;18.016;2023-03-13T09:06:30;99263.28;;;0.47;73.99
14295;BME280;7231;59.370;18.016;2023-03-13T09:08:58;99252.03;;;0.45;74.81
14295;BME280;7231;59.370;18.016;2023-03-13T09:11:26;99168.75;;;0.06;74.83
14295;BME280;7231;59.370;18.016;2023-03-13T09:13:55;99224.47;;;0.44;75.07
14295;BME280;7231;59.370;18.016;2023-03-13T09:16:27;99221.09;;;0.45;75.82
14295;BME280;7231;59.370;18.016;2023-03-13T09:18:56;99207.38;;;0.46;76.66
14295;BME280;7231;59.370;18.016;2023-03-13T09:21:26;99185.13;;;0.48;76.58
14295;BME280;7231;59.370;18.016;2023-03-13T09:23:54;99181.84;;;0.52;77.46
14295;BME280;7231;59.370;18.016;2023-03-13T09:26:23;99184.63;;;0.57;77.08
14295;BME280;7231;59.370;18.016;2023-03-13T09:28:52;99170.09;;;0.59;77.32
14295;BME280;7231;59.370;18.016;2023-03-13T09:31:22;99164.22;;;0.63;78.19
14295;BME280;7231;59.370;18.016;2023-03-13T09:33:52;99166.06;;;0.65;79.22
14295;BME280;7231;59.370;18.016;2023-03-13T09:36:20;99155.69;;;0.64;79.53
14295;BME280;7231;59.370;18.016;2023-03-13T09:38:49;99146.31;;;0.66;80.37
14295;BME280;7231;59.370;18.016;2023-03-13T09:41:23;99082.44;;;0.38;80.52
14295;BME280;7231;59.370;18.016;2023-03-13T09:43:57;99111.78;;;0.62;81.18
14295;BME280;7231;59.370;18.016;2023-03-13T09:46:32;99079.47;;;0.50;81.53
14295;BME280;7231;59.370;18.016;2023-03-13T09:49:11;99056.84;;;0.43;81.43
14295;BME280;7231;59.370;18.016;2023-03-13T09:51:45;99056.16;;;0.47;82.49
14295;BME280;7231;59.370;18.016;2023-03-13T09:54:22;99092.56;;;0.77;82.42
14295;BME280;7231;59.370;18.016;2023-03-13T09:56:54;99094.56;;;0.84;82.27
14295;BME280;7231;59.370;18.016;2023-03-13T09:59:28;99067.81;;;0.82;83.21
14295;BME280;7231;59.370;18.016;2023-03-13T10:01:58;99057.56;;;0.83;82.82
14295;BME280;7231;59.370;18.016;2023-03-13T10:04:32;99041.72;;;0.96;82.92
14295;BME280;7231;59.370;18.016;2023-03-13T10:07:04;99022.78;;;0.96;82.79
14295;BME280;7231;59.370;18.016;2023-03-13T10:09:38;99032.00;;;0.89;83.86
14295;BME280;7231;59.370;18.016;2023-03-13T10:12:14;99031.44;;;0.98;83.94
14295;BME280;7231;59.370;18.016;2023-03-13T10:14:51;99030.63;;;0.99;83.61
14295;BME280;7231;59.370;18.016;2023-03-13T10:17:29;99023.88;;;1.03;84.21
14295;BME280;7231;59.370;18.016;2023-03-13T10:20:02;98998.56;;;0.92;84.05
14295;BME280;7231;59.370;18.016;2023-03-13T10:22:36;99017.00;;;1.03;84.63
14295;BME280;7231;59.370;18.016;2023-03-13T10:25:08;99004.78;;;0.97;85.19
14295;BME280;7231;59.370;18.016;2023-03-13T10:27:43;98990.38;;;0.80;85.26
14295;BME280;7231;59.370;18.016;2023-03-13T10:30:19;98997.75;;;0.93;85.37
14295;BME280;7231;59.370;18.016;2023-03-13T10:32:49;98991.59;;;0.90;85.61
14295;BME280;7231;59.370;18.016;2023-03-13T10:35:21;98966.56;;;0.87;86.21
14295;BME280;7231;59.370;18.016;2023-03-13T10:38:00;98883.25;;;0.42;86.40
14295;BME280;7231;59.370;18.016;2023-03-13T10:40:28;98951.03;;;0.86;86.29
14295;BME280;7231;59.370;18.016;2023-03-13T10:43:02;98907.41;;;0.68;86.59
14295;BME280;7231;59.370;18.016;2023-03-13T10:45:33;98938.28;;;0.90;87.02
14295;BME280;7231;59.370;18.016;2023-03-13T10:48:03;98926.38;;;0.94;86.88
14295;BME280;7231;59.370;18.016;2023-03-13T10:50:43;98938.56;;;0.98;86.94
14295;BME280;7231;59.370;18.016;2023-03-13T10:53:22;98906.81;;;1.01;87.08
14295;BME280;7231;59.370;18.016;2023-03-13T10:55:52;98918.84;;;1.00;87.90
14295;BME280;7231;59.370;18.016;2023-03-13T10:58:23;98903.38;;;1.00;88.53
14295;BME280;7231;59.370;18.016;2023-03-13T11:01:09;98925.81;;;1.03;88.31
14295;BME280;7231;59.370;18.016;2023-03-13T11:03:41;98866.47;;;1.03;88.25
14295;BME280;7231;59.370;18.016;2023-03-13T11:06:23;98848.91;;;0.92;88.37
14295;BME280;7231;59.370;18.016;2023-03-13T11:09:04;98776.50;;;0.61;88.94
14295;BME280;7231;59.370;18.016;2023-03-13T11:11:47;98821.72;;;1.02;89.66
14295;BME280;7231;59.370;18.016;2023-03-13T11:14:17;98827.00;;;1.05;89.22
14295;BME280;7231;59.370;18.016;2023-03-13T11:16:47;98799.03;;;0.92;89.45
14295;BME280;7231;59.370;18.016;2023-03-13T11:19:27;98791.44;;;0.96;90.26
14295;BME280;7231;59.370;18.016;2023-03-13T11:25:11;98801.34;;;1.10;89.81
14295;BME280;7231;59.370;18.016;2023-03-13T11:27:46;98791.84;;;1.09;90.34
14295;BME280;7231;59.370;18.016;2023-03-13T11:30:23;98726.00;;;0.68;90.71
14295;BME280;7231;59.370;18.016;2023-03-13T11:32:54;98759.56;;;0.94;90.61
14295;BME280;7231;59.370;18.016;2023-03-13T11:35:36;98771.19;;;1.09;91.02
14295;BME280;7231;59.370;18.016;2023-03-13T11:38:10;98764.38;;;1.11;91.59
14295;BME280;7231;59.370;18.016;2023-03-13T11:40:50;98737.50;;;1.04;91.70
14295;BME280;7231;59.370;18.016;2023-03-13T11:43:39;98740.97;;;1.05;91.64
14295;BME280;7231;59.370;18.016;2023-03-13T11:46:20;98739.50;;;1.13;91.70
14295;BME280;7231;59.370;18.016;2023-03-13T11:49:02;98723.97;;;1.11;91.57
14295;BME280;7231;59.370;18.016;2023-03-13T11:51:48;98549.06;;;0.17;91.27
14295;BME280;7231;59.370;18.016;2023-03-13T11:54:39;98695.53;;;1.10;91.88
14295;BME280;7231;59.370;18.016;2023-03-13T11:57:17;98657.09;;;0.90;92.34
14295;BME280;7231;59.370;18.016;2023-03-13T11:59:54;98683.56;;;1.12;91.68
14295;BME280;7231;59.370;18.016;2023-03-13T12:02:34;98683.56;;;1.12;91.89
14295;BME280;7231;59.370;18.016;2023-03-13T12:05:08;98663.75;;;1.11;92.11
14295;BME280;7231;59.370;18.016;2023-03-13T12:07:40;98647.19;;;1.04;92.17
14295;BME280;7231;59.370;18.016;2023-03-13T12:10:12;98671.63;;;1.15;92.59
14295;BME280;7231;59.370;18.016;2023-03-13T12:12:46;98622.22;;;1.03;92.48
14295;BME280;7231;59.370;18.016;2023-03-13T12:15:22;98594.03;;;1.09;92.83
14295;BME280;7231;59.370;18.016;2023-03-13T12:17:55;98629.06;;;1.31;92.80
14295;BME280;7231;59.370;18.016;2023-03-13T12:20:27;98607.50;;;1.29;93.00
14295;BME280;7231;59.370;18.016;2023-03-13T12:23:06;98575.16;;;1.12;93.61
14295;BME280;7231;59.370;18.016;2023-03-13T12:25:46;98583.53;;;1.33;93.25
14295;BME280;7231;59.370;18.016;2023-03-13T12:28:24;98472.69;;;0.76;93.14
14295;BME280;7231;59.370;18.016;2023-03-13T12:31:00;98573.25;;;1.35;93.69
14295;BME280;7231;59.370;18.016;2023-03-13T12:33:34;98432.72;;;0.62;93.31
14295;BME280;7231;59.370;18.016;2023-03-13T12:36:08;98555.16;;;1.35;93.92
14295;BME280;7231;59.370;18.016;2023-03-13T12:38:40;98552.59;;;1.35;93.30
14295;BME280;7231;59.370;18.016;2023-03-13T12:41:17;98532.81;;;1.35;93.71
14295;BME280;7231;59.370;18.016;2023-03-13T12:43:48;98526.84;;;1.38;93.82
14295;BME280;7231;59.370;18.016;2023-03-13T12:46:40;98515.56;;;1.34;93.51
14295;BME280;7231;59.370;18.016;2023-03-13T12:49:28;98467.00;;;1.19;94.05
14295;BME280;7231;59.370;18.016;2023-03-13T12:52:11;98487.94;;;1.30;94.00
14295;BME280;7231;59.370;18.016;2023-03-13T12:54:56;98477.53;;;1.27;94.72
14295;BME280;7231;59.370;18.016;2023-03-13T12:58:06;98465.50;;;1.27;94.73
14295;BME280;7231;59.370;18.016;2023-03-13T13:00:40;98429.03;;;1.15;94.32
14295;BME280;7231;59.370;18.016;2023-03-13T13:03:21;98432.88;;;1.31;94.30
14295;BME280;7231;59.370;18.016;2023-03-13T13:05:59;98426.06;;;1.33;94.91
14295;BME280;7231;59.370;18.016;2023-03-13T13:08:33;98329.34;;;0.84;94.70
14295;BME280;7231;59.370;18.016;2023-03-13T13:17:50;98367.50;;;1.30;95.06
14295;BME280;7231;59.370;18.016;2023-03-13T13:20:35;98348.63;;;1.33;95.28
14295;BME280;7231;59.370;18.016;2023-03-13T13:23:34;98340.84;;;1.32;95.50
14295;BME280;7231;59.370;18.016;2023-03-13T13:32:50;98298.75;;;1.34;95.98
14295;BME280;7231;59.370;18.016;2023-03-13T13:35:29;98287.53;;;1.34;96.08
14295;BME280;7231;59.370;18.016;2023-03-13T13:38:30;98279.00;;;1.36;96.26
14295;BME280;7231;59.370;18.016;2023-03-13T13:41:25;98238.41;;;1.29;95.66
14295;BME280;7231;59.370;18.016;2023-03-13T13:44:20;98250.75;;;1.42;96.43